Historyczne dane pomiarowe

Dodano dane terminowe – wersja testowa.

Dane z okresu 1951-2019

Wersja bazy: 1.34 [2019-03-16, lista zmian], aktualizacja planowana na 2019-04-15

Dane meteo z obszaru Polski uzyskane na podstawie danych udostępnionych przez Instytut Meteorologii i Gospodarki Wodnej – Państwowy Instytut Badawczy.

 

Wybierz Datę:    

       

TemperaturaWilgotnośćZachmurzenieWiatrCiśnienieWidzialnośćZjawiska
 Data    tng td wb rh cc ccl cl cm ch dir g1 g2 mslp ppp      
1994-07-30 00:00:00 14.8--- 12.8 13.688wxwx0wx--1017.0 976.4 0.0---wx
1994-07-30 01:00:00 14.4--- 12.7 13.490wxwx0wx--1017.0 976.4----wx
1994-07-30 02:00:00 13.5--- 11.9 12.690wxwx0wx--1017.0 976.3----wx
1994-07-30 03:00:00 12.8--- 11.8 12.293wxwx0wx--1017.1 976.3----wx
1994-07-30 04:00:00 12.8--- 11.8 12.293wxwx0wx--1017.1 976.3----wx
1994-07-30 05:00:00 14.6--- 13.3 13.892wxwx0wx--1017.0 976.4----wx
1994-07-30 06:00:00 17.8--- 15.2 16.285wxwx0wx--1016.3 976.2 0.0---wx
1994-07-30 07:00:00 22.3--- 15.2 17.864wxwx0wx--1015.5 976.0----wx
1994-07-30 08:00:00 27.9--- 16.8 20.651wxwx0wx--1014.6 975.9----wx
1994-07-30 09:00:00 32.5--- 13.8 20.532wxwxwx2wx--1013.8 975.7----wx
1994-07-30 10:00:00 33.8--- 14.8 21.432wxwxwx3wx--1013.6 975.6----wx
1994-07-30 11:00:00 33.9--- 11.7 20.026wxwxwx4wx--1013.5 975.5----wx
1994-07-30 12:00:00 34.9--- 13.0 20.927wxwxwx3wx--1013.0 975.2 0.0---wx
1994-07-30 13:00:00 35.1--- 11.9 20.525wxwxwx4wx--1012.5 974.7----wx
1994-07-30 14:00:00 34.7--- 12.7 20.727wxwxwx1wx--1012.1 974.3----wx
1994-07-30 15:00:00 34.7--- 13.4 21.028wxwxwx3wx--1011.8 974.0----wx
1994-07-30 16:00:00 33.9--- 13.5 20.829wxwxwx3wx--1011.4 973.5----wx
1994-07-30 17:00:00 32.6--- 13.1 20.231wxwxwx2wx--1011.3 973.3----wx
1994-07-30 18:00:00 30.7--- 12.9 19.534wxwxwxwx2wx--1011.8 973.5 0.0---wx
1994-07-30 19:00:00 25.7--- 13.7 18.248wxwxwxwx0wx--1013.0 974.0----wx
1994-07-30 20:00:00 22.3--- 13.9 17.159wxwxwx0wx--1013.7 974.3----wx
1994-07-30 21:00:00 20.4--- 13.9 16.466wxwx0wx--1014.0 974.3----wx
1994-07-30 22:00:00 18.5--- 13.2 15.371wxwx0wx--1014.4 974.4----wx
1994-07-30 23:00:00 16.9--- 13.4 14.880wxwx0wx--1014.5 974.3----wx

 

Źródłem pochodzenia danych jest Instytut Meteorologii i Gospodarki Wodnej – Państwowy Instytut Badawczy. Dane Instytutu Meteorologii i Gospodarki Wodnej – Państwowego Instytutu Badawczego zostały przetworzone.

Dane źródłowe można odnaleźć na stronie https://dane.imgw.pl